M/T Havva Ana — V7RE3 — position and weather

sailwx.info

Track history (hours):
 
Tides and Currents Weather Stations Pressure Air Temp Water Temp Dewpoint Dewpoint Depression Visibility Wind Speed Wind Dir Waves Ship Positions

M/T Havva Ana

Last reported at 2014-Sep-13 05:03 UTC. Time now 2014-Sep-23 16:22 UTC.
Position N 36°19' E 027°00'.
Warning: this ship's position is 10 days out of date.

Length 124 m; draft 7.2 m.

Type: Tanker. MMSI: 538003488.

Date/timePositionNaut miles runAvg speedWind from/ knotsBaromVisibWave heightAir tempDewpointWater temp
2014-Sep-13 05:03N 36°19' E 027°00'912.8
2014-Sep-13 04:20N 36°25' E 026°52'2312.8
2014-Sep-13 02:31N 36°41' E 026°31'1212.8
2014-Sep-13 01:33N 36°50' E 026°20'1313.3
2014-Sep-13 00:33N 37°00' E 026°09'1313.1
2014-Sep-12 23:34N 37°11' E 026°00'1312.7
2014-Sep-12 22:33N 37°22' E 025°52'5112.2
2014-Sep-12 18:22N 38°13' E 025°46'2312.4
2014-Sep-12 16:33N 38°36' E 025°46'1312.9
2014-Sep-12 15:33N 38°48' E 025°46'1812.6
2014-Sep-12 14:06N 39°07' E 025°45'18110.9
2014-Sep-11 21:26N 40°57' E 028°53'1 0.2
2014-Sep-11 15:27N 40°57' E 028°54'357 8.1
2014-Sep-09 19:14N 46°35' E 031°34'811.5
2014-Sep-09 18:30N 46°36' E 031°46'1010.2
2014-Sep-09 17:33N 46°43' E 031°56'9 9.4
2014-Sep-09 16:33N 46°52' E 031°58'5 4.9
2014-Sep-09 15:31N 46°57' E 031°60'0 0.0
2014-Sep-09 14:31N 46°57' E 031°60'0 0.0
2014-Sep-09 13:31N 46°57' E 031°60'0 0.0
2014-Sep-09 12:31N 46°57' E 031°60'0 0.0
2014-Sep-09 11:31N 46°57' E 031°60'0 0.0
2014-Sep-09 10:31N 46°57' E 031°60'0 0.0
2014-Sep-09 09:31N 46°57' E 031°60'0 0.0
2014-Sep-09 08:31N 46°57' E 031°60'0 0.0
2014-Sep-09 07:31N 46°57' E 031°60'0 0.0
2014-Sep-09 06:31N 46°57' E 031°60'0 0.0
2014-Sep-09 05:31N 46°57' E 031°60'0 0.0
2014-Sep-09 04:31N 46°57' E 031°60'0 0.0
2014-Sep-09 03:31N 46°57' E 031°60'0 0.0
2014-Sep-09 02:31N 46°57' E 031°60'0 0.0
2014-Sep-09 01:31N 46°57' E 031°60'0 0.0
2014-Sep-09 00:31N 46°57' E 031°60'0 0.0
2014-Sep-08 23:31N 46°57' E 031°60'0 0.0
2014-Sep-08 22:31N 46°57' E 031°60'0 0.0
2014-Sep-08 21:31N 46°57' E 031°60'0 0.0
2014-Sep-08 20:31N 46°57' E 031°60'0 0.0
2014-Sep-08 19:31N 46°57' E 031°60'0 0.0
2014-Sep-08 18:31N 46°57' E 031°60'0 0.0
2014-Sep-08 17:31N 46°57' E 031°60'0 0.0
2014-Sep-08 16:31N 46°57' E 031°60'0 0.0
2014-Sep-08 15:31N 46°57' E 031°60'0 0.0
2014-Sep-08 14:31N 46°57' E 031°60'0 0.0
2014-Sep-08 13:28N 46°57' E 031°60'0 0.0
2014-Sep-08 12:31N 46°57' E 031°60'0 0.0
2014-Sep-08 11:31N 46°57' E 031°60'0 0.0
2014-Sep-08 10:31N 46°57' E 031°60'0 0.0
2014-Sep-08 09:31N 46°57' E 031°60'0 0.0
2014-Sep-08 08:33N 46°57' E 031°60'0 0.4
2014-Sep-08 07:31N 46°56' E 031°60'0 0.0
2014-Sep-08 06:31N 46°56' E 031°60'0 0.0
2014-Sep-08 05:31N 46°56' E 031°60'0 0.1
2014-Sep-08 04:31N 46°56' E 031°60'0 0.0
2014-Sep-08 03:31N 46°56' E 031°60'0 0.0
2014-Sep-08 02:31N 46°56' E 031°60'0 0.0
2014-Sep-08 01:31N 46°56' E 031°60'0 0.0
2014-Sep-08 00:31N 46°56' E 031°60'0 0.0
2014-Sep-07 23:31N 46°56' E 031°60'0 0.0
2014-Sep-07 21:31N 46°56' E 031°60'0 0.0
2014-Sep-07 20:31N 46°56' E 031°60'0 0.1
2014-Sep-07 19:31N 46°56' E 031°60'0 0.1
2014-Sep-07 18:31N 46°56' E 031°60'0 0.0
2014-Sep-07 17:31N 46°57' E 031°60'0 0.1
2014-Sep-07 16:31N 46°56' E 031°60'2 2.3
2014-Sep-07 15:33N 46°54' E 032°01'1110.7
2014-Sep-07 14:33N 46°44' E 031°55'1010.2
2014-Sep-07 13:33N 46°36' E 031°47'  
2014-Sep-04 15:16N 46°20' E 031°02'  
Track history (hours):
 
Tides and Currents Weather Stations Pressure Air Temp Water Temp Dewpoint Dewpoint Depression Visibility Wind Speed Wind Dir Waves Ship Positions

M/T Havva Ana

Last reported at 2014-Sep-13 05:03 UTC. Time now 2014-Sep-23 16:22 UTC.
Position N 36°19' E 027°00'.
Warning: this ship's position is 10 days out of date.

Length 124 m; draft 7.2 m.

Type: Tanker. MMSI: 538003488.

Date/timePositionNaut miles runAvg speedWind from/ knotsBaromVisibWave heightAir tempDewpointWater temp
2014-Sep-13 05:03N 36°19' E 027°00'912.8
2014-Sep-13 04:20N 36°25' E 026°52'2312.8
2014-Sep-13 02:31N 36°41' E 026°31'1212.8
2014-Sep-13 01:33N 36°50' E 026°20'1313.3
2014-Sep-13 00:33N 37°00' E 026°09'1313.1
2014-Sep-12 23:34N 37°11' E 026°00'1312.7
2014-Sep-12 22:33N 37°22' E 025°52'5112.2
2014-Sep-12 18:22N 38°13' E 025°46'2312.4
2014-Sep-12 16:33N 38°36' E 025°46'1312.9
2014-Sep-12 15:33N 38°48' E 025°46'1812.6
2014-Sep-12 14:06N 39°07' E 025°45'18110.9
2014-Sep-11 21:26N 40°57' E 028°53'1 0.2
2014-Sep-11 15:27N 40°57' E 028°54'357 8.1
2014-Sep-09 19:14N 46°35' E 031°34'811.5
2014-Sep-09 18:30N 46°36' E 031°46'1010.2
2014-Sep-09 17:33N 46°43' E 031°56'9 9.4
2014-Sep-09 16:33N 46°52' E 031°58'5 4.9
2014-Sep-09 15:31N 46°57' E 031°60'0 0.0
2014-Sep-09 14:31N 46°57' E 031°60'0 0.0
2014-Sep-09 13:31N 46°57' E 031°60'0 0.0
2014-Sep-09 12:31N 46°57' E 031°60'0 0.0
2014-Sep-09 11:31N 46°57' E 031°60'0 0.0
2014-Sep-09 10:31N 46°57' E 031°60'0 0.0
2014-Sep-09 09:31N 46°57' E 031°60'0 0.0
2014-Sep-09 08:31N 46°57' E 031°60'0 0.0
2014-Sep-09 07:31N 46°57' E 031°60'0 0.0
2014-Sep-09 06:31N 46°57' E 031°60'0 0.0
2014-Sep-09 05:31N 46°57' E 031°60'0 0.0
2014-Sep-09 04:31N 46°57' E 031°60'0 0.0
2014-Sep-09 03:31N 46°57' E 031°60'0 0.0
2014-Sep-09 02:31N 46°57' E 031°60'0 0.0
2014-Sep-09 01:31N 46°57' E 031°60'0 0.0
2014-Sep-09 00:31N 46°57' E 031°60'0 0.0
2014-Sep-08 23:31N 46°57' E 031°60'0 0.0
2014-Sep-08 22:31N 46°57' E 031°60'0 0.0
2014-Sep-08 21:31N 46°57' E 031°60'0 0.0
2014-Sep-08 20:31N 46°57' E 031°60'0 0.0
2014-Sep-08 19:31N 46°57' E 031°60'0 0.0
2014-Sep-08 18:31N 46°57' E 031°60'0 0.0
2014-Sep-08 17:31N 46°57' E 031°60'0 0.0
2014-Sep-08 16:31N 46°57' E 031°60'0 0.0
2014-Sep-08 15:31N 46°57' E 031°60'0 0.0
2014-Sep-08 14:31N 46°57' E 031°60'0 0.0
2014-Sep-08 13:28N 46°57' E 031°60'0 0.0
2014-Sep-08 12:31N 46°57' E 031°60'0 0.0
2014-Sep-08 11:31N 46°57' E 031°60'0 0.0
2014-Sep-08 10:31N 46°57' E 031°60'0 0.0
2014-Sep-08 09:31N 46°57' E 031°60'0 0.0
2014-Sep-08 08:33N 46°57' E 031°60'0 0.4
2014-Sep-08 07:31N 46°56' E 031°60'0 0.0
2014-Sep-08 06:31N 46°56' E 031°60'0 0.0
2014-Sep-08 05:31N 46°56' E 031°60'0 0.1
2014-Sep-08 04:31N 46°56' E 031°60'0 0.0
2014-Sep-08 03:31N 46°56' E 031°60'0 0.0
2014-Sep-08 02:31N 46°56' E 031°60'0 0.0
2014-Sep-08 01:31N 46°56' E 031°60'0 0.0
2014-Sep-08 00:31N 46°56' E 031°60'0 0.0
2014-Sep-07 23:31N 46°56' E 031°60'0 0.0
2014-Sep-07 21:31N 46°56' E 031°60'0 0.0
2014-Sep-07 20:31N 46°56' E 031°60'0 0.1
2014-Sep-07 19:31N 46°56' E 031°60'0 0.1
2014-Sep-07 18:31N 46°56' E 031°60'0 0.0
2014-Sep-07 17:31N 46°57' E 031°60'0 0.1
2014-Sep-07 16:31N 46°56' E 031°60'2 2.3
2014-Sep-07 15:33N 46°54' E 032°01'1110.7
2014-Sep-07 14:33N 46°44' E 031°55'1010.2
2014-Sep-07 13:33N 46°36' E 031°47'  
2014-Sep-04 15:16N 46°20' E 031°02'  

Dump ship's entire track history